Weather History for Marion, IN

Change the Weather History Date:

Saturday, June 7, 2014

  Actual Average (KMIE) Record (KMIE)
Temperature  
Mean Temperature 68 °F 69 °F  
Max Temperature 80 °F 79 °F 94 °F (2011)
Min Temperature 55 °F 59 °F 46 °F (1977)
Degree Days  
Heating Degree Days 0 1  
Month to date heating degree days 12  
Since 1 June heating degree days 12  
Since 1 July heating degree days 5771  
Cooling Degree Days 2 5  
Month to date cooling degree days 34  
Year to date cooling degree days 117  
Since 1 June cooling degree days 34  
Growing Degree Days 18 (Base 50)    
Moisture  
Dew Point 52 °F    
Average Humidity 58    
Maximum Humidity 93    
Minimum Humidity 32    
Precipitation  
Precipitation 0.00 in 0.16 in 0.98 in (1986)
Month to date precipitation 1.15  
Year to date precipitation 16.72  
Sea Level Pressure  
Sea Level Pressure 29.97 in    
Wind  
Wind Speed 3 mph (SSE)    
Max Wind Speed 13 mph    
Max Gust Speed 18 mph    
Visibility 9 miles    
Events      
T = Trace of Precipitation, MM = Missing Value Source: NWS Daily Summary

Daily Weather History Graph

Daily Weather History Graph

Search for Another Location

Airport:

Trip Planner

Search our weather history database for the weather conditions in past years. The results will help you decide how hot, cold, wet, or windy it might be!

Date:

Astronomy

Jun. 07, 2014 Rise Set
Actual Time 6:12 AM EDT 9:11 PM EDT
Civil Twilight 5:39 AM EDT 9:43 PM EDT
Nautical Twilight 4:58 AM EDT 10:25 PM EDT
Astronomical Twilight 4:09 AM EDT 11:14 PM EDT
Moon 3:26 PM EDT (6/7) 2:35 AM EDT (6/7)
Length of Visible Light 16h 04m
Length of Day
14h 58m
Waxing Gibbous, 67% of the Moon is Illuminated
Jun 7
Waxing Gibbous
Jun 13
Full
Jun 19
Last Quarter
Jun 27
New
Jul 5
First Quarter

Hourly Weather History & Observations

Time (EDT) Temp. Dew Point Humidity Pressure Visibility Wind Dir Wind Speed Gust Speed Precip Events Conditions
12:15 AM 62.8 °F 54.5 °F 74% 30.02 in 7.0 mi Calm Calm - N/A   Clear
12:35 AM 61.9 °F 55.2 °F 79% 30.02 in 10.0 mi Calm Calm - N/A   Clear
12:55 AM 61.9 °F 53.8 °F 75% 30.03 in 7.0 mi Calm Calm - N/A   Clear
1:15 AM 61.3 °F 54.3 °F 78% 30.04 in 10.0 mi Calm Calm - N/A   Clear
1:35 AM 61.0 °F 54.7 °F 80% 30.03 in 10.0 mi Calm Calm - N/A   Clear
1:55 AM 60.1 °F 55.2 °F 84% 30.03 in 10.0 mi Calm Calm - N/A   Clear
2:15 AM 59.5 °F 54.1 °F 82% 30.02 in 10.0 mi Calm Calm - N/A   Clear
2:35 AM 58.5 °F 53.6 °F 84% 30.01 in 5.0 mi Calm Calm - N/A   Clear
2:55 AM 58.1 °F 53.8 °F 86% 30.01 in 10.0 mi Calm Calm - N/A   Clear
3:15 AM 57.4 °F 54.0 °F 88% 30.00 in 10.0 mi East 3.5 mph - N/A   Clear
3:35 AM 56.8 °F 53.8 °F 89% 30.00 in 10.0 mi Calm Calm - N/A   Clear
3:55 AM 56.8 °F 54.0 °F 90% 30.00 in 7.0 mi Calm Calm - N/A   Clear
4:15 AM 57.4 °F 53.6 °F 87% 29.99 in 10.0 mi Calm Calm - N/A   Clear
4:35 AM 56.5 °F 53.2 °F 89% 30.01 in 10.0 mi Calm Calm - N/A   Clear
4:55 AM 56.3 °F 53.1 °F 89% 30.00 in 10.0 mi Calm Calm - N/A   Clear
5:15 AM 55.8 °F 53.1 °F 91% 30.00 in 7.0 mi Calm Calm - N/A   Clear
5:35 AM 56.1 °F 53.4 °F 91% 30.02 in 10.0 mi Calm Calm - N/A   Clear
5:55 AM 55.4 °F 53.4 °F 93% 30.04 in 7.0 mi Calm Calm - N/A   Clear
6:15 AM 55.8 °F 53.6 °F 92% 30.04 in 7.0 mi Calm Calm - N/A   Clear
6:35 AM 55.6 °F 53.2 °F 92% 30.04 in 10.0 mi Calm Calm - N/A   Clear
6:55 AM 55.6 °F 53.6 °F 93% 30.05 in 7.0 mi Calm Calm - N/A   Clear
7:15 AM 56.8 °F 54.5 °F 92% 30.05 in 7.0 mi Calm Calm - N/A   Clear
7:35 AM 58.5 °F 54.9 °F 88% 30.06 in 7.0 mi Calm Calm - N/A   Clear
7:55 AM 60.4 °F 55.4 °F 83% 30.05 in 10.0 mi Calm Calm - N/A   Clear
8:15 AM 63.0 °F 55.9 °F 78% 30.05 in 10.0 mi South 4.6 mph - N/A   Clear
8:55 AM 67.3 °F 54.9 °F 64% 30.05 in 10.0 mi Calm Calm - N/A   Clear
9:15 AM 69.4 °F 54.0 °F 58% 30.06 in 10.0 mi SW 4.6 mph - N/A   Clear
9:35 AM 70.9 °F 52.0 °F 51% 30.06 in 7.0 mi SSW 5.8 mph - N/A   Clear
9:55 AM 72.3 °F 52.3 °F 49% 30.05 in 10.0 mi South 4.6 mph - N/A   Clear
10:15 AM 73.2 °F 51.6 °F 47% 30.04 in 10.0 mi South 6.9 mph - N/A   Clear
10:35 AM 74.3 °F 51.4 °F 45% 30.04 in 10.0 mi South 6.9 mph - N/A   Clear
10:55 AM 75.2 °F 50.9 °F 42% 30.04 in 10.0 mi SW 8.1 mph - N/A   Clear
11:15 AM 75.6 °F 50.5 °F 41% 30.03 in 10.0 mi South 6.9 mph - N/A   Clear
11:35 AM 75.9 °F 50.2 °F 40% 30.03 in 10.0 mi South 4.6 mph - N/A   Clear
11:55 AM 76.1 °F 50.4 °F 40% 30.02 in 10.0 mi SE 5.8 mph - N/A   Clear
12:15 PM 76.5 °F 50.2 °F 40% 30.02 in 10.0 mi South 5.8 mph - N/A   Clear
12:35 PM 77.0 °F 50.4 °F 39% 30.00 in 10.0 mi SSE 8.1 mph - N/A   Clear
1:15 PM 78.3 °F 50.4 °F 38% 30.00 in 7.0 mi SSE 10.4 mph - N/A   Clear
1:35 PM 78.1 °F 49.8 °F 37% 29.99 in 10.0 mi South 6.9 mph - N/A   Clear
1:55 PM 78.3 °F 49.1 °F 36% 29.98 in 10.0 mi SE 8.1 mph - N/A   Clear
2:15 PM 78.8 °F 50.2 °F 37% 29.98 in 7.0 mi SE 9.2 mph - N/A   Clear
2:35 PM 79.2 °F 49.1 °F 35% 29.98 in 10.0 mi South 6.9 mph - N/A   Clear
2:55 PM 79.5 °F 49.3 °F 35% 29.97 in 10.0 mi South 11.5 mph - N/A   Clear
3:15 PM 80.1 °F 49.5 °F 34% 29.95 in 10.0 mi South 10.4 mph - N/A   Clear
3:35 PM 80.2 °F 49.3 °F 34% 29.94 in 7.0 mi SSE 6.9 mph 10.4 mph N/A   Clear
3:55 PM 79.7 °F 48.6 °F 33% 29.94 in 10.0 mi SSE 10.4 mph 17.3 mph N/A   Clear
4:15 PM 79.9 °F 48.2 °F 33% 29.94 in 10.0 mi SSE 10.4 mph 18.4 mph N/A   Clear
4:35 PM 80.1 °F 47.7 °F 32% 29.94 in 7.0 mi South 12.7 mph - N/A   Clear
4:55 PM 79.3 °F 48.0 °F 33% 29.93 in 10.0 mi SE 12.7 mph 17.3 mph N/A   Clear
5:15 PM 79.3 °F 47.5 °F 33% 29.92 in 10.0 mi South 10.4 mph - N/A   Clear
5:35 PM 79.2 °F 48.7 °F 34% 29.91 in 10.0 mi SSE 8.1 mph - N/A   Clear
5:55 PM 78.8 °F 48.2 °F 34% 29.91 in 10.0 mi SSE 12.7 mph - N/A   Clear
6:15 PM 78.6 °F 48.0 °F 34% 29.91 in 10.0 mi SSE 10.4 mph - N/A   Clear
6:35 PM 78.3 °F 47.5 °F 34% 29.91 in 7.0 mi South 9.2 mph - N/A   Clear
6:55 PM 78.3 °F 46.9 °F 33% 29.90 in 7.0 mi South 10.4 mph - N/A   Clear
7:15 PM 77.7 °F 47.5 °F 34% 29.89 in 10.0 mi South 6.9 mph - N/A   Clear
7:35 PM 77.5 °F 48.6 °F 36% 29.89 in 10.0 mi South 8.1 mph - N/A   Clear
7:55 PM 76.6 °F 48.6 °F 37% 29.88 in 7.0 mi SSE 6.9 mph - N/A   Clear
8:15 PM 75.6 °F 50.2 °F 41% 29.87 in 10.0 mi SE 6.9 mph - N/A   Clear
8:35 PM 74.8 °F 50.5 °F 42% 29.86 in 10.0 mi SE 5.8 mph - N/A   Clear
8:55 PM 73.8 °F 50.7 °F 44% 29.85 in 10.0 mi SE 4.6 mph - N/A   Clear
9:15 PM 72.3 °F 52.2 °F 49% 29.84 in 7.0 mi ESE 4.6 mph - N/A   Clear
9:35 PM 71.6 °F 52.7 °F 51% 29.84 in 10.0 mi SE 3.5 mph - N/A   Clear
9:55 PM 71.1 °F 52.9 °F 53% 29.84 in 10.0 mi SE 4.6 mph - N/A   Clear
10:15 PM 69.6 °F 54.1 °F 58% 29.84 in 10.0 mi ESE 4.6 mph - N/A   Clear
10:35 PM 69.8 °F 54.5 °F 58% 29.84 in 10.0 mi ESE 4.6 mph - N/A   Clear
10:55 PM 69.8 °F 54.0 °F 57% 29.84 in 10.0 mi ESE 5.8 mph - N/A   Clear
11:15 PM 70.2 °F 53.6 °F 56% 29.84 in 10.0 mi ESE 5.8 mph - N/A   Mostly Cloudy
11:35 PM 70.3 °F 52.5 °F 53% 29.83 in 10.0 mi ESE 6.9 mph - N/A   Mostly Cloudy
11:55 PM 70.5 °F 52.3 °F 52% 29.82 in 10.0 mi East 5.8 mph - N/A   Overcast